createdAt,value
2023-04-16T00:02:31.566Z,2.60
2023-04-16T00:05:17.195Z,1.67
2023-04-16T00:08:02.767Z,1.85
2023-04-16T00:10:48.155Z,2.05
2023-04-16T00:13:33.616Z,1.35
2023-04-16T00:16:19.127Z,1.15
2023-04-16T00:19:04.993Z,1.25
2023-04-16T00:21:50.555Z,1.20
2023-04-16T00:24:36.369Z,0.65
2023-04-16T00:27:22.153Z,1.08
2023-04-16T00:30:08.274Z,0.80
2023-04-16T00:32:54.263Z,0.95
2023-04-16T00:35:39.872Z,1.70
2023-04-16T00:38:29.319Z,0.88
2023-04-16T00:41:15.805Z,0.63
2023-04-16T00:44:01.581Z,0.40
2023-04-16T00:46:47.653Z,1.13
2023-04-16T00:49:33.545Z,0.68
2023-04-16T00:52:19.161Z,1.33
2023-04-16T00:55:07.122Z,1.77
2023-04-16T00:57:52.814Z,0.87
2023-04-16T01:00:38.594Z,0.68
2023-04-16T01:03:39.104Z,0.88
2023-04-16T01:06:25.420Z,0.80
2023-04-16T01:09:11.530Z,1.15
2023-04-16T01:11:57.262Z,0.80
2023-04-16T01:14:42.710Z,1.15
2023-04-16T01:17:28.259Z,1.27
2023-04-16T01:20:14.226Z,1.00
2023-04-16T01:22:59.881Z,0.80
2023-04-16T01:25:46.605Z,0.88
2023-04-16T01:28:32.808Z,1.23
2023-04-16T01:31:18.700Z,1.35
2023-04-16T01:34:17.181Z,1.33
2023-04-16T01:37:03.852Z,0.98
2023-04-16T01:39:49.252Z,1.55
2023-04-16T01:42:35.095Z,1.00
2023-04-16T01:45:21.294Z,0.88
2023-04-16T01:48:08.581Z,1.10
2023-04-16T01:50:54.112Z,1.55
2023-04-16T01:53:39.933Z,0.98
2023-04-16T01:56:25.953Z,1.42
2023-04-16T01:59:11.872Z,2.05
2023-04-16T02:02:14.146Z,0.73
2023-04-16T02:04:59.859Z,0.55
2023-04-16T02:07:45.477Z,0.47
2023-04-16T02:10:30.934Z,1.17
2023-04-16T02:13:17.148Z,1.05
2023-04-16T02:16:05.679Z,1.00
2023-04-16T02:19:06.061Z,1.15
2023-04-16T02:21:54.808Z,1.15
2023-04-16T02:24:40.413Z,0.98
2023-04-16T02:27:28.281Z,1.80
2023-04-16T02:30:20.500Z,3.28
2023-04-16T02:33:09.017Z,4.10
2023-04-16T02:35:56.005Z,2.90
2023-04-16T02:38:41.539Z,2.20
2023-04-16T02:41:27.723Z,2.83
2023-04-16T02:44:13.337Z,3.05
2023-04-16T02:46:58.749Z,1.90
2023-04-16T02:49:44.053Z,2.95
2023-04-16T02:52:29.556Z,1.67
2023-04-16T02:55:15.510Z,1.80
2023-04-16T02:58:01.515Z,1.70
2023-04-16T03:00:47.787Z,1.20
2023-04-16T03:03:33.660Z,1.75
2023-04-16T03:06:19.244Z,1.42
2023-04-16T03:09:04.792Z,1.65
2023-04-16T03:11:50.307Z,1.77
2023-04-16T03:14:35.798Z,2.53
2023-04-16T03:17:21.367Z,2.33
2023-04-16T03:20:08.548Z,2.72
2023-04-16T03:22:53.950Z,2.33
2023-04-16T03:25:40.153Z,2.40
2023-04-16T03:28:27.465Z,2.05
2023-04-16T03:31:13.237Z,5.78
2023-04-16T03:33:58.815Z,9.77
2023-04-16T03:36:44.937Z,9.95
2023-04-16T03:39:31.034Z,5.88
2023-04-16T03:42:17.087Z,4.75
2023-04-16T03:45:03.281Z,4.68
2023-04-16T03:47:52.075Z,3.85
2023-04-16T03:50:44.310Z,2.90
2023-04-16T03:53:30.191Z,3.03
2023-04-16T03:56:15.786Z,3.30
2023-04-16T03:59:01.352Z,3.33
2023-04-16T04:01:46.932Z,2.53
2023-04-16T04:04:33.387Z,3.90
2023-04-16T04:07:18.933Z,3.75
2023-04-16T04:10:05.260Z,4.15
2023-04-16T04:12:56.005Z,5.57
2023-04-16T04:15:41.729Z,7.85
2023-04-16T04:18:27.534Z,6.18
2023-04-16T04:21:12.901Z,3.53
2023-04-16T04:23:58.431Z,4.38
2023-04-16T04:26:44.118Z,3.75
2023-04-16T04:29:32.522Z,3.25
2023-04-16T04:32:18.239Z,2.67
2023-04-16T04:35:06.205Z,2.70
2023-04-16T04:37:52.338Z,5.03
2023-04-16T04:40:39.155Z,3.42
2023-04-16T04:43:25.411Z,2.80
2023-04-16T04:46:11.306Z,3.97
2023-04-16T04:48:56.911Z,2.55
2023-04-16T04:51:42.328Z,3.35
2023-04-16T04:54:32.490Z,3.60
2023-04-16T04:57:18.313Z,2.38
2023-04-16T05:00:04.172Z,3.55
2023-04-16T05:03:02.214Z,3.65
2023-04-16T05:05:47.859Z,2.40
2023-04-16T05:08:33.601Z,4.65
2023-04-16T05:11:19.137Z,3.58
2023-04-16T05:14:04.864Z,2.75
2023-04-16T05:16:50.903Z,4.28
2023-04-16T05:19:36.831Z,4.20
2023-04-16T05:22:22.578Z,3.42
2023-04-16T05:25:08.388Z,4.13
2023-04-16T05:27:54.165Z,4.15
2023-04-16T05:30:40.071Z,2.83
2023-04-16T05:33:25.731Z,5.13
2023-04-16T05:36:11.317Z,4.13
2023-04-16T05:38:56.734Z,3.17
2023-04-16T05:41:42.474Z,3.88
2023-04-16T05:44:28.066Z,3.35
2023-04-16T05:47:13.488Z,3.08
2023-04-16T05:49:58.852Z,3.33
2023-04-16T05:52:44.376Z,3.22
2023-04-16T05:55:30.064Z,3.03
2023-04-16T05:58:16.772Z,4.68
2023-04-16T06:01:02.770Z,4.20
2023-04-16T06:03:49.232Z,4.32
2023-04-16T06:06:36.766Z,5.18
2023-04-16T06:09:22.426Z,5.05
2023-04-16T06:12:08.872Z,5.40
2023-04-16T06:14:55.834Z,6.18
2023-04-16T06:17:41.858Z,4.90
2023-04-16T06:20:27.577Z,3.78
2023-04-16T06:23:13.146Z,4.90
2023-04-16T06:25:58.589Z,4.90
2023-04-16T06:28:44.144Z,4.63
2023-04-16T06:31:30.698Z,4.15
2023-04-16T06:34:16.392Z,3.42
2023-04-16T06:37:02.246Z,3.63
2023-04-16T06:39:47.916Z,3.33
2023-04-16T06:42:33.572Z,3.78
2023-04-16T06:45:19.165Z,3.25
2023-04-16T06:48:05.102Z,3.05
2023-04-16T06:50:51.068Z,5.28
2023-04-16T06:53:37.103Z,3.35
2023-04-16T06:56:22.706Z,3.60
2023-04-16T06:59:08.487Z,3.35
2023-04-16T07:01:54.174Z,3.13
2023-04-16T07:04:40.143Z,3.45
2023-04-16T07:07:25.675Z,3.45
2023-04-16T07:10:11.661Z,5.88
2023-04-16T07:12:57.870Z,4.97
2023-04-16T07:15:43.739Z,5.45
2023-04-16T07:18:29.331Z,7.22
2023-04-16T07:21:15.423Z,6.57
2023-04-16T07:24:02.247Z,5.78
2023-04-16T07:26:47.727Z,6.63
2023-04-16T07:29:33.105Z,7.80
2023-04-16T07:32:19.364Z,7.50
2023-04-16T07:35:05.694Z,7.97
2023-04-16T07:37:51.271Z,9.18
2023-04-16T07:40:36.878Z,7.07
2023-04-16T07:43:22.530Z,7.28
2023-04-16T07:46:08.105Z,6.95
2023-04-16T07:48:53.951Z,8.00
2023-04-16T07:51:39.953Z,10.90
2023-04-16T07:54:26.324Z,8.18
2023-04-16T07:57:13.622Z,7.10
2023-04-16T08:00:00.154Z,7.18
2023-04-16T08:02:46.293Z,7.57
2023-04-16T08:05:31.883Z,8.38
2023-04-16T08:08:17.348Z,6.47
2023-04-16T08:11:02.873Z,6.05
2023-04-16T08:13:48.203Z,6.07
2023-04-16T08:16:33.615Z,6.57
2023-04-16T08:19:19.145Z,5.72
2023-04-16T08:22:04.910Z,7.05
2023-04-16T08:24:50.635Z,6.43
2023-04-16T08:27:35.960Z,6.13
2023-04-16T08:30:22.483Z,7.03
2023-04-16T08:33:08.569Z,6.35
2023-04-16T08:35:54.193Z,8.10
2023-04-16T08:38:40.098Z,7.55
2023-04-16T08:41:29.083Z,6.78
2023-04-16T08:44:37.370Z,6.07
2023-04-16T08:47:26.566Z,5.25
2023-04-16T08:50:15.919Z,5.95
2023-04-16T08:53:06.536Z,6.03
2023-04-16T08:55:54.063Z,4.88
2023-04-16T08:58:39.693Z,5.97
2023-04-16T09:01:28.844Z,6.50
2023-04-16T09:04:16.383Z,5.72
2023-04-16T09:07:04.356Z,6.78
2023-04-16T09:09:52.314Z,5.55
2023-04-16T09:12:39.720Z,4.70
2023-04-16T09:15:26.063Z,4.85
2023-04-16T09:18:12.062Z,5.15
2023-04-16T09:20:57.957Z,5.55
2023-04-16T09:23:44.279Z,4.82
2023-04-16T09:26:30.555Z,5.78
2023-04-16T09:29:40.542Z,6.90
2023-04-16T09:32:28.193Z,5.55
2023-04-16T09:35:15.264Z,5.95
2023-04-16T09:38:01.248Z,6.00
2023-04-16T09:40:46.863Z,6.88
2023-04-16T09:43:32.427Z,6.93
2023-04-16T09:46:17.993Z,5.32
2023-04-16T09:49:17.006Z,6.13
2023-04-16T09:52:08.505Z,6.22
2023-04-16T09:54:54.171Z,5.45
2023-04-16T09:57:39.819Z,6.00
2023-04-16T10:00:25.621Z,7.28
2023-04-16T10:03:11.327Z,6.03
2023-04-16T10:06:20.528Z,7.63
2023-04-16T10:09:10.410Z,5.25
2023-04-16T10:11:56.088Z,5.90
2023-04-16T10:14:42.709Z,5.78
2023-04-16T10:17:29.819Z,6.00
2023-04-16T10:20:17.799Z,5.55
2023-04-16T10:23:03.730Z,4.25
2023-04-16T10:25:50.203Z,6.38
2023-04-16T10:28:36.541Z,5.68
2023-04-16T10:31:23.116Z,4.90
2023-04-16T10:34:09.443Z,5.93
2023-04-16T10:36:55.481Z,4.88
2023-04-16T10:39:41.337Z,6.03
2023-04-16T10:42:26.921Z,6.03
2023-04-16T10:45:12.544Z,5.70
2023-04-16T10:47:58.570Z,4.97
2023-04-16T10:50:56.122Z,6.38
2023-04-16T10:53:41.680Z,6.40
2023-04-16T10:56:27.376Z,6.20
2023-04-16T10:59:18.574Z,5.05
2023-04-16T11:02:15.772Z,5.47
2023-04-16T11:05:01.914Z,5.93
2023-04-16T11:07:49.689Z,6.85
2023-04-16T11:10:39.272Z,5.40
2023-04-16T11:13:25.236Z,5.60
2023-04-16T11:16:13.131Z,6.38
2023-04-16T11:18:58.661Z,6.18
2023-04-16T11:21:44.983Z,4.75
2023-04-16T11:24:32.394Z,5.03
2023-04-16T11:27:17.996Z,5.38
2023-04-16T11:30:11.385Z,5.63
2023-04-16T11:32:56.951Z,5.40
2023-04-16T11:35:42.786Z,6.35
2023-04-16T11:38:37.257Z,5.32
2023-04-16T11:41:22.655Z,5.53
2023-04-16T11:44:25.843Z,4.93
2023-04-16T11:47:13.236Z,4.38
2023-04-16T11:50:14.782Z,4.50
2023-04-16T11:53:05.944Z,4.95
2023-04-16T11:55:51.615Z,4.45
2023-04-16T11:58:37.347Z,4.43
2023-04-16T12:01:28.881Z,5.55
2023-04-16T12:04:21.671Z,3.70
2023-04-16T12:07:12.956Z,4.15
2023-04-16T12:10:07.312Z,3.83
2023-04-16T12:12:52.902Z,4.65
2023-04-16T12:15:50.705Z,4.13
2023-04-16T12:18:36.490Z,5.27
2023-04-16T12:21:22.453Z,3.80
2023-04-16T12:24:12.844Z,4.45
2023-04-16T12:27:02.439Z,4.35
2023-04-16T12:30:06.745Z,4.18
2023-04-16T12:33:16.446Z,4.72
2023-04-16T12:36:17.030Z,3.92
2023-04-16T12:39:03.614Z,4.78
2023-04-16T12:41:49.471Z,4.95
2023-04-16T12:44:35.068Z,4.32
2023-04-16T12:47:20.941Z,5.78
2023-04-16T12:50:07.316Z,4.78
2023-04-16T12:52:52.854Z,5.53
2023-04-16T12:55:38.333Z,5.38
2023-04-16T12:58:23.729Z,5.47
2023-04-16T13:01:09.240Z,5.30
2023-04-16T13:03:54.964Z,5.63
2023-04-16T13:06:40.722Z,4.65
2023-04-16T13:09:29.137Z,4.57
2023-04-16T13:12:14.996Z,4.15
2023-04-16T13:15:00.937Z,4.68
2023-04-16T13:17:46.727Z,4.40
2023-04-16T13:20:33.054Z,4.38
2023-04-16T13:23:18.706Z,3.55
2023-04-16T13:26:04.331Z,4.32
2023-04-16T13:28:49.821Z,3.55
2023-04-16T13:31:35.876Z,3.85
2023-04-16T13:34:21.685Z,3.55
2023-04-16T13:37:07.248Z,3.25
2023-04-16T13:39:52.795Z,3.45
2023-04-16T13:42:38.265Z,3.95
2023-04-16T13:45:24.204Z,3.22
2023-04-16T13:48:09.619Z,3.20
2023-04-16T13:50:55.764Z,3.67
2023-04-16T13:53:41.489Z,4.47
2023-04-16T13:56:27.547Z,7.10
2023-04-16T13:59:15.042Z,3.75
2023-04-16T14:02:00.957Z,3.33
2023-04-16T14:04:46.809Z,3.67
2023-04-16T14:07:32.574Z,3.80
2023-04-16T14:10:18.330Z,3.75
2023-04-16T14:13:04.055Z,3.03
2023-04-16T14:15:50.089Z,3.58
2023-04-16T14:18:40.386Z,3.38
2023-04-16T14:21:27.349Z,3.00
2023-04-16T14:24:12.806Z,3.72
2023-04-16T14:26:58.186Z,3.17
2023-04-16T14:29:45.740Z,4.10
2023-04-16T14:32:31.354Z,4.07
2023-04-16T14:35:17.289Z,4.50
2023-04-16T14:38:03.170Z,5.90
2023-04-16T14:40:48.867Z,4.05
2023-04-16T14:43:35.456Z,3.45
2023-04-16T14:46:20.974Z,4.22
2023-04-16T14:49:07.960Z,3.33
2023-04-16T14:51:56.038Z,2.90
2023-04-16T14:54:41.549Z,3.88
2023-04-16T14:57:27.066Z,2.97
2023-04-16T15:00:16.500Z,2.88
2023-04-16T15:03:02.680Z,2.50
2023-04-16T15:05:54.363Z,2.72
2023-04-16T15:08:40.121Z,2.40
2023-04-16T15:11:26.170Z,2.58
2023-04-16T15:14:11.998Z,3.42
2023-04-16T15:16:57.844Z,6.18
2023-04-16T15:19:43.543Z,4.28
2023-04-16T15:25:32.910Z,3.65
2023-04-16T15:28:18.600Z,2.58
2023-04-16T15:31:04.359Z,3.45
2023-04-16T15:33:50.279Z,3.47
2023-04-16T15:36:36.111Z,2.78
2023-04-16T15:39:21.696Z,3.80
2023-04-16T15:42:07.696Z,3.00
2023-04-16T15:44:53.485Z,3.60
2023-04-16T15:47:41.534Z,3.42
2023-04-16T15:53:14.032Z,4.50
2023-04-16T15:56:00.495Z,3.50
2023-04-16T15:58:48.884Z,4.05
2023-04-16T16:01:34.387Z,3.72
2023-04-16T16:04:25.934Z,3.55
2023-04-16T16:07:12.319Z,2.17
2023-04-16T16:09:58.082Z,3.20
2023-04-16T16:12:43.882Z,2.80
2023-04-16T16:15:30.325Z,2.58
2023-04-16T16:18:16.318Z,2.00
2023-04-16T16:21:01.908Z,3.03
2023-04-16T16:23:47.733Z,3.55
2023-04-16T16:26:33.215Z,3.15
2023-04-16T16:29:18.712Z,2.47
2023-04-16T16:32:04.913Z,2.70
2023-04-16T16:34:50.552Z,2.88
2023-04-16T16:37:36.794Z,3.72
2023-04-16T16:40:23.332Z,3.72
2023-04-16T16:43:08.937Z,2.90
2023-04-16T16:45:54.322Z,3.03
2023-04-16T16:48:39.886Z,3.33
2023-04-16T16:51:26.706Z,6.05
2023-04-16T16:54:12.668Z,3.15
2023-04-16T16:56:58.308Z,2.25
2023-04-16T16:59:43.769Z,2.33
2023-04-16T17:02:29.786Z,3.85
2023-04-16T17:05:16.046Z,3.75
2023-04-16T17:08:02.033Z,3.45
2023-04-16T17:10:47.554Z,3.85
2023-04-16T17:13:33.849Z,3.58
2023-04-16T17:16:19.778Z,2.95
2023-04-16T17:19:05.457Z,3.28
2023-04-16T17:21:52.812Z,4.20
2023-04-16T17:24:38.509Z,3.55
2023-04-16T17:27:24.123Z,3.13
2023-04-16T17:30:10.050Z,2.97
2023-04-16T17:32:55.870Z,2.42
2023-04-16T17:35:41.481Z,2.42
2023-04-16T17:38:27.128Z,3.42
2023-04-16T17:41:12.720Z,2.30
2023-04-16T17:43:58.888Z,2.47
2023-04-16T17:46:44.524Z,4.47
2023-04-16T17:49:30.042Z,3.55
2023-04-16T17:52:15.730Z,4.03
2023-04-16T17:55:01.172Z,4.60
2023-04-16T17:57:46.796Z,3.85
2023-04-16T18:00:32.201Z,4.40
2023-04-16T18:03:20.709Z,4.22
2023-04-16T18:06:07.548Z,3.03
2023-04-16T18:08:53.266Z,2.00
2023-04-16T18:11:38.869Z,2.92
2023-04-16T18:14:24.821Z,4.50
2023-04-16T18:17:10.687Z,5.18
2023-04-16T18:19:56.503Z,6.68
2023-04-16T18:22:42.560Z,10.60
2023-04-16T18:25:34.466Z,9.40
2023-04-16T18:28:21.310Z,11.57
2023-04-16T18:31:07.592Z,11.75
2023-04-16T18:33:58.132Z,7.45
2023-04-16T18:36:44.013Z,5.38
2023-04-16T18:39:33.106Z,4.68
2023-04-16T18:42:18.746Z,4.50
2023-04-16T18:45:05.820Z,4.32
2023-04-16T18:47:51.642Z,4.30
2023-04-16T18:50:37.216Z,5.05
2023-04-16T18:53:22.713Z,3.85
2023-04-16T18:56:08.871Z,5.95
2023-04-16T18:58:54.818Z,4.85
2023-04-16T19:01:40.680Z,6.80
2023-04-16T19:04:26.260Z,8.43
2023-04-16T19:07:12.348Z,5.30
2023-04-16T19:09:59.375Z,6.03
2023-04-16T19:12:44.954Z,3.60
2023-04-16T19:15:32.637Z,4.43
2023-04-16T19:21:06.476Z,6.10
2023-04-16T19:23:52.236Z,7.95
2023-04-16T19:26:38.304Z,8.18
2023-04-16T19:29:24.368Z,7.45
2023-04-16T19:32:10.157Z,6.68
2023-04-16T19:34:55.906Z,10.35
2023-04-16T19:37:42.493Z,11.32
2023-04-16T19:40:28.236Z,9.07
2023-04-16T19:43:14.510Z,12.52
2023-04-16T19:46:00.025Z,7.78
2023-04-16T19:48:45.639Z,4.72
2023-04-16T19:51:31.163Z,3.10
2023-04-16T19:54:17.117Z,2.42
2023-04-16T19:57:04.072Z,3.83
2023-04-16T19:59:50.370Z,2.20
2023-04-16T20:02:36.229Z,2.97
2023-04-16T20:05:22.129Z,3.20
2023-04-16T20:08:07.465Z,3.17
2023-04-16T20:10:53.814Z,8.98
2023-04-16T20:13:39.648Z,4.10
2023-04-16T20:16:25.206Z,3.55
2023-04-16T20:19:15.477Z,16.80
2023-04-16T20:22:00.976Z,4.72
2023-04-16T20:24:47.957Z,3.45
2023-04-16T20:27:34.781Z,5.38
2023-04-16T20:30:29.595Z,4.95
2023-04-16T20:33:15.828Z,3.78
2023-04-16T20:36:01.751Z,3.10
2023-04-16T20:38:47.163Z,2.47
2023-04-16T20:41:33.663Z,2.58
2023-04-16T20:44:25.400Z,4.07
2023-04-16T20:47:12.492Z,5.68
2023-04-16T20:50:01.090Z,3.80
2023-04-16T20:52:46.647Z,3.23
2023-04-16T20:55:32.281Z,3.83
2023-04-16T20:58:17.678Z,3.05
2023-04-16T21:01:05.307Z,2.70
2023-04-16T21:03:50.828Z,3.38
2023-04-16T21:06:37.910Z,3.97
2023-04-16T21:09:24.168Z,4.18
2023-04-16T21:12:09.778Z,4.40
2023-04-16T21:14:56.580Z,4.07
2023-04-16T21:17:42.280Z,4.00
2023-04-16T21:20:29.433Z,4.05
2023-04-16T21:23:16.146Z,3.50
2023-04-16T21:26:01.616Z,3.72
2023-04-16T21:28:47.592Z,4.60
2023-04-16T21:31:33.365Z,3.58
2023-04-16T21:34:19.141Z,3.47
2023-04-16T21:37:04.822Z,3.00
2023-04-16T21:39:50.348Z,3.17
2023-04-16T21:42:41.421Z,3.85
2023-04-16T21:45:27.165Z,4.43
2023-04-16T21:48:14.201Z,5.30
2023-04-16T21:51:05.769Z,4.63
2023-04-16T21:53:51.231Z,3.47
2023-04-16T21:56:36.591Z,8.00
2023-04-16T21:59:22.043Z,6.78
2023-04-16T22:02:07.440Z,2.67
2023-04-16T22:04:52.964Z,2.85
2023-04-16T22:07:38.759Z,5.03
2023-04-16T22:10:24.232Z,4.78
2023-04-16T22:13:12.081Z,3.30
2023-04-16T22:16:02.100Z,4.60
2023-04-16T22:18:47.870Z,3.78
2023-04-16T22:21:33.547Z,2.45
2023-04-16T22:24:19.171Z,3.25
2023-04-16T22:27:05.063Z,3.88
2023-04-16T22:29:50.905Z,3.70
2023-04-16T22:32:36.826Z,2.55
2023-04-16T22:35:22.226Z,2.35
2023-04-16T22:38:07.702Z,3.03
2023-04-16T22:40:53.002Z,2.35
2023-04-16T22:43:38.507Z,3.22
2023-04-16T22:46:25.623Z,2.83
2023-04-16T22:49:11.313Z,3.00
2023-04-16T22:51:57.332Z,2.75
2023-04-16T22:54:42.686Z,2.55
2023-04-16T22:57:28.454Z,3.10
2023-04-16T23:00:17.206Z,3.15
2023-04-16T23:05:49.413Z,2.92
2023-04-16T23:08:35.026Z,2.47
2023-04-16T23:11:20.613Z,3.15
2023-04-16T23:14:07.177Z,4.18
2023-04-16T23:16:52.622Z,3.50
2023-04-16T23:19:38.033Z,4.50
2023-04-16T23:22:23.461Z,3.80
2023-04-16T23:25:09.383Z,3.53
2023-04-16T23:27:56.044Z,2.95
2023-04-16T23:30:41.639Z,3.20
2023-04-16T23:33:27.318Z,2.80
2023-04-16T23:36:12.902Z,5.25
2023-04-16T23:38:58.380Z,10.52
2023-04-16T23:41:44.322Z,12.82
2023-04-16T23:44:30.027Z,9.98
2023-04-16T23:47:15.890Z,11.52
2023-04-16T23:50:01.420Z,11.77
2023-04-16T23:52:46.866Z,11.27
2023-04-16T23:55:32.592Z,8.02
2023-04-16T23:58:18.629Z,7.70
